sensor_id;sensor_type;location;lat;lon;timestamp;temperature;humidity
26589;DHT22;14235;48.532;8.722;2022-07-23T00:00:09;22.50;99.90
26589;DHT22;14235;48.532;8.722;2022-07-23T00:02:34;22.60;99.90
26589;DHT22;14235;48.532;8.722;2022-07-23T00:05:00;22.40;99.90
26589;DHT22;14235;48.532;8.722;2022-07-23T00:07:25;22.50;99.90
26589;DHT22;14235;48.532;8.722;2022-07-23T00:09:51;21.90;99.90
26589;DHT22;14235;48.532;8.722;2022-07-23T00:12:16;22.20;99.90
26589;DHT22;14235;48.532;8.722;2022-07-23T00:14:42;22.20;99.90
26589;DHT22;14235;48.532;8.722;2022-07-23T00:17:08;22.30;99.90
26589;DHT22;14235;48.532;8.722;2022-07-23T00:19:33;22.30;99.90
26589;DHT22;14235;48.532;8.722;2022-07-23T00:21:59;22.20;99.90
26589;DHT22;14235;48.532;8.722;2022-07-23T00:24:24;22.10;99.90
26589;DHT22;14235;48.532;8.722;2022-07-23T00:26:50;22.20;99.90
26589;DHT22;14235;48.532;8.722;2022-07-23T00:29:16;22.10;99.90
26589;DHT22;14235;48.532;8.722;2022-07-23T00:31:41;22.10;99.90
26589;DHT22;14235;48.532;8.722;2022-07-23T00:34:07;22.10;99.90
26589;DHT22;14235;48.532;8.722;2022-07-23T00:36:32;22.20;99.90
26589;DHT22;14235;48.532;8.722;2022-07-23T00:38:58;22.30;99.90
26589;DHT22;14235;48.532;8.722;2022-07-23T00:41:23;22.20;99.90
26589;DHT22;14235;48.532;8.722;2022-07-23T00:43:49;22.00;99.90
26589;DHT22;14235;48.532;8.722;2022-07-23T00:46:21;21.70;99.90
26589;DHT22;14235;48.532;8.722;2022-07-23T00:48:48;21.60;99.90
26589;DHT22;14235;48.532;8.722;2022-07-23T00:51:17;21.60;99.90
26589;DHT22;14235;48.532;8.722;2022-07-23T00:53:44;21.40;99.90
26589;DHT22;14235;48.532;8.722;2022-07-23T00:56:10;21.30;99.90
26589;DHT22;14235;48.532;8.722;2022-07-23T00:58:36;21.20;99.90
26589;DHT22;14235;48.532;8.722;2022-07-23T01:01:04;21.30;99.90
26589;DHT22;14235;48.532;8.722;2022-07-23T01:03:30;21.30;99.90
26589;DHT22;14235;48.532;8.722;2022-07-23T01:08:23;21.50;99.90
26589;DHT22;14235;48.532;8.722;2022-07-23T01:10:49;21.40;99.90
26589;DHT22;14235;48.532;8.722;2022-07-23T01:13:16;21.10;99.90
26589;DHT22;14235;48.532;8.722;2022-07-23T01:15:42;21.10;99.90
26589;DHT22;14235;48.532;8.722;2022-07-23T01:18:08;21.40;99.90
26589;DHT22;14235;48.532;8.722;2022-07-23T01:20:34;20.90;99.90
26589;DHT22;14235;48.532;8.722;2022-07-23T01:23:00;20.90;99.90
26589;DHT22;14235;48.532;8.722;2022-07-23T01:25:26;21.00;99.90
26589;DHT22;14235;48.532;8.722;2022-07-23T01:27:52;20.80;99.90
26589;DHT22;14235;48.532;8.722;2022-07-23T01:30:18;20.80;99.90
26589;DHT22;14235;48.532;8.722;2022-07-23T01:32:44;20.70;99.90
26589;DHT22;14235;48.532;8.722;2022-07-23T01:35:10;20.70;99.90
26589;DHT22;14235;48.532;8.722;2022-07-23T01:37:36;20.60;99.90
26589;DHT22;14235;48.532;8.722;2022-07-23T01:40:03;20.40;99.90
26589;DHT22;14235;48.532;8.722;2022-07-23T01:42:29;20.50;99.90
26589;DHT22;14235;48.532;8.722;2022-07-23T01:44:55;20.50;99.90
26589;DHT22;14235;48.532;8.722;2022-07-23T01:47:20;20.40;99.90
26589;DHT22;14235;48.532;8.722;2022-07-23T01:49:46;20.30;99.90
26589;DHT22;14235;48.532;8.722;2022-07-23T01:52:12;20.40;99.90
26589;DHT22;14235;48.532;8.722;2022-07-23T01:54:38;20.50;99.90
26589;DHT22;14235;48.532;8.722;2022-07-23T01:57:05;20.30;99.90
26589;DHT22;14235;48.532;8.722;2022-07-23T01:59:31;20.40;99.90
26589;DHT22;14235;48.532;8.722;2022-07-23T02:01:57;20.50;99.90
26589;DHT22;14235;48.532;8.722;2022-07-23T02:04:23;20.40;99.90
26589;DHT22;14235;48.532;8.722;2022-07-23T02:06:49;20.10;99.90
26589;DHT22;14235;48.532;8.722;2022-07-23T02:23:52;19.90;99.90
26589;DHT22;14235;48.532;8.722;2022-07-23T02:26:17;19.90;99.90
26589;DHT22;14235;48.532;8.722;2022-07-23T02:28:43;20.10;99.90
26589;DHT22;14235;48.532;8.722;2022-07-23T02:31:09;20.00;99.90
26589;DHT22;14235;48.532;8.722;2022-07-23T02:33:34;20.10;99.90
26589;DHT22;14235;48.532;8.722;2022-07-23T02:36:00;20.10;99.90
26589;DHT22;14235;48.532;8.722;2022-07-23T02:38:26;20.00;99.90
26589;DHT22;14235;48.532;8.722;2022-07-23T02:40:51;20.10;99.90
26589;DHT22;14235;48.532;8.722;2022-07-23T02:43:17;20.00;99.90
26589;DHT22;14235;48.532;8.722;2022-07-23T02:45:43;20.00;99.90
26589;DHT22;14235;48.532;8.722;2022-07-23T02:48:08;20.00;99.90
26589;DHT22;14235;48.532;8.722;2022-07-23T02:50:34;20.00;99.90
26589;DHT22;14235;48.532;8.722;2022-07-23T02:53:00;20.10;99.90
26589;DHT22;14235;48.532;8.722;2022-07-23T02:55:26;20.10;99.90
26589;DHT22;14235;48.532;8.722;2022-07-23T02:57:51;20.10;99.90
26589;DHT22;14235;48.532;8.722;2022-07-23T03:56:30;18.90;99.90
26589;DHT22;14235;48.532;8.722;2022-07-23T03:58:56;19.00;99.90
26589;DHT22;14235;48.532;8.722;2022-07-23T04:57:27;19.10;99.90
26589;DHT22;14235;48.532;8.722;2022-07-23T05:24:12;19.60;99.90
26589;DHT22;14235;48.532;8.722;2022-07-23T05:26:38;19.70;99.90
26589;DHT22;14235;48.532;8.722;2022-07-23T05:29:04;19.60;99.90
26589;DHT22;14235;48.532;8.722;2022-07-23T05:33:55;19.50;99.90
26589;DHT22;14235;48.532;8.722;2022-07-23T05:36:21;19.50;99.90
26589;DHT22;14235;48.532;8.722;2022-07-23T05:38:46;19.40;99.90
26589;DHT22;14235;48.532;8.722;2022-07-23T05:41:12;19.50;99.90
26589;DHT22;14235;48.532;8.722;2022-07-23T05:43:37;19.30;99.90
26589;DHT22;14235;48.532;8.722;2022-07-23T05:46:03;19.30;99.90
26589;DHT22;14235;48.532;8.722;2022-07-23T05:48:28;19.40;99.90
26589;DHT22;14235;48.532;8.722;2022-07-23T05:50:54;19.40;99.90
26589;DHT22;14235;48.532;8.722;2022-07-23T05:53:20;19.60;99.90
26589;DHT22;14235;48.532;8.722;2022-07-23T05:55:45;19.80;99.90
26589;DHT22;14235;48.532;8.722;2022-07-23T05:58:11;19.70;99.90
26589;DHT22;14235;48.532;8.722;2022-07-23T06:00:36;19.90;99.90
26589;DHT22;14235;48.532;8.722;2022-07-23T06:03:02;20.10;99.90
26589;DHT22;14235;48.532;8.722;2022-07-23T06:05:28;20.10;99.90
26589;DHT22;14235;48.532;8.722;2022-07-23T06:07:53;20.30;99.90
26589;DHT22;14235;48.532;8.722;2022-07-23T06:10:19;20.40;99.90
26589;DHT22;14235;48.532;8.722;2022-07-23T06:12:46;20.40;99.90
26589;DHT22;14235;48.532;8.722;2022-07-23T06:15:12;20.50;99.90
26589;DHT22;14235;48.532;8.722;2022-07-23T06:17:38;20.60;99.90
26589;DHT22;14235;48.532;8.722;2022-07-23T06:20:07;20.70;99.90
26589;DHT22;14235;48.532;8.722;2022-07-23T06:22:34;20.60;99.90
26589;DHT22;14235;48.532;8.722;2022-07-23T06:24:59;20.80;99.90
26589;DHT22;14235;48.532;8.722;2022-07-23T06:27:25;20.80;99.90
26589;DHT22;14235;48.532;8.722;2022-07-23T06:29:50;21.00;99.90
26589;DHT22;14235;48.532;8.722;2022-07-23T06:32:16;21.10;99.90
26589;DHT22;14235;48.532;8.722;2022-07-23T06:34:41;21.10;99.90
26589;DHT22;14235;48.532;8.722;2022-07-23T06:37:07;21.20;99.90
26589;DHT22;14235;48.532;8.722;2022-07-23T06:39:33;21.30;99.90
26589;DHT22;14235;48.532;8.722;2022-07-23T06:41:58;21.50;99.90
26589;DHT22;14235;48.532;8.722;2022-07-23T06:44:24;21.60;99.90
26589;DHT22;14235;48.532;8.722;2022-07-23T06:46:49;21.70;99.90
26589;DHT22;14235;48.532;8.722;2022-07-23T06:49:15;21.70;99.90
26589;DHT22;14235;48.532;8.722;2022-07-23T06:51:40;21.80;99.90
26589;DHT22;14235;48.532;8.722;2022-07-23T06:54:06;21.80;99.90
26589;DHT22;14235;48.532;8.722;2022-07-23T06:56:31;22.00;99.90
26589;DHT22;14235;48.532;8.722;2022-07-23T06:58:57;22.00;99.90
26589;DHT22;14235;48.532;8.722;2022-07-23T07:01:23;22.10;99.90
26589;DHT22;14235;48.532;8.722;2022-07-23T07:03:48;22.20;99.90
26589;DHT22;14235;48.532;8.722;2022-07-23T07:06:14;22.10;99.90
26589;DHT22;14235;48.532;8.722;2022-07-23T07:08:40;22.10;99.90
26589;DHT22;14235;48.532;8.722;2022-07-23T07:11:06;22.10;99.90
26589;DHT22;14235;48.532;8.722;2022-07-23T07:13:33;22.10;99.90
26589;DHT22;14235;48.532;8.722;2022-07-23T08:33:59;23.30;99.90
26589;DHT22;14235;48.532;8.722;2022-07-23T08:36:25;23.40;99.90
26589;DHT22;14235;48.532;8.722;2022-07-23T08:38:53;23.40;99.90
26589;DHT22;14235;48.532;8.722;2022-07-23T08:41:19;23.50;99.90
26589;DHT22;14235;48.532;8.722;2022-07-23T08:43:45;23.70;99.90
26589;DHT22;14235;48.532;8.722;2022-07-23T08:46:13;23.60;99.90
26589;DHT22;14235;48.532;8.722;2022-07-23T08:48:39;23.70;99.90
26589;DHT22;14235;48.532;8.722;2022-07-23T08:51:06;23.70;99.90
26589;DHT22;14235;48.532;8.722;2022-07-23T08:53:33;23.80;99.90
26589;DHT22;14235;48.532;8.722;2022-07-23T08:56:02;23.90;99.90
26589;DHT22;14235;48.532;8.722;2022-07-23T08:58:29;24.00;99.90
26589;DHT22;14235;48.532;8.722;2022-07-23T09:00:56;24.10;99.90
26589;DHT22;14235;48.532;8.722;2022-07-23T09:03:25;24.20;99.90
26589;DHT22;14235;48.532;8.722;2022-07-23T09:05:52;24.40;99.90
26589;DHT22;14235;48.532;8.722;2022-07-23T09:08:18;24.40;99.90
26589;DHT22;14235;48.532;8.722;2022-07-23T09:13:34;24.30;99.90
26589;DHT22;14235;48.532;8.722;2022-07-23T09:16:11;24.30;99.90
26589;DHT22;14235;48.532;8.722;2022-07-23T09:18:57;24.30;99.90
26589;DHT22;14235;48.532;8.722;2022-07-23T09:21:34;24.30;99.90
26589;DHT22;14235;48.532;8.722;2022-07-23T09:24:01;24.20;99.90
26589;DHT22;14235;48.532;8.722;2022-07-23T09:29:02;24.30;99.90
26589;DHT22;14235;48.532;8.722;2022-07-23T09:31:55;24.40;99.90
26589;DHT22;14235;48.532;8.722;2022-07-23T09:34:23;24.40;99.90
26589;DHT22;14235;48.532;8.722;2022-07-23T09:36:51;24.40;99.90
26589;DHT22;14235;48.532;8.722;2022-07-23T09:39:29;24.60;99.90
26589;DHT22;14235;48.532;8.722;2022-07-23T09:41:55;24.70;99.90
26589;DHT22;14235;48.532;8.722;2022-07-23T09:44:21;24.70;99.90
26589;DHT22;14235;48.532;8.722;2022-07-23T09:46:48;24.90;99.90
26589;DHT22;14235;48.532;8.722;2022-07-23T09:49:16;25.00;99.90
26589;DHT22;14235;48.532;8.722;2022-07-23T09:56:54;25.20;99.90
26589;DHT22;14235;48.532;8.722;2022-07-23T09:59:23;25.20;99.90
26589;DHT22;14235;48.532;8.722;2022-07-23T10:01:50;25.30;99.90
26589;DHT22;14235;48.532;8.722;2022-07-23T10:04:17;25.30;99.90
26589;DHT22;14235;48.532;8.722;2022-07-23T10:06:43;25.30;99.90
26589;DHT22;14235;48.532;8.722;2022-07-23T10:09:12;25.30;99.90
26589;DHT22;14235;48.532;8.722;2022-07-23T10:11:37;25.50;99.90
26589;DHT22;14235;48.532;8.722;2022-07-23T10:14:04;25.50;99.90
26589;DHT22;14235;48.532;8.722;2022-07-23T10:16:31;25.60;99.90
26589;DHT22;14235;48.532;8.722;2022-07-23T10:18:56;25.60;99.90
26589;DHT22;14235;48.532;8.722;2022-07-23T10:21:34;25.70;99.90
26589;DHT22;14235;48.532;8.722;2022-07-23T10:30:04;26.00;99.90
26589;DHT22;14235;48.532;8.722;2022-07-23T10:35:47;26.10;99.90
26589;DHT22;14235;48.532;8.722;2022-07-23T10:38:24;26.10;99.90
26589;DHT22;14235;48.532;8.722;2022-07-23T10:41:03;26.20;99.90
26589;DHT22;14235;48.532;8.722;2022-07-23T10:43:29;26.20;99.90
26589;DHT22;14235;48.532;8.722;2022-07-23T10:45:56;26.30;99.90
26589;DHT22;14235;48.532;8.722;2022-07-23T10:48:41;26.30;99.90
26589;DHT22;14235;48.532;8.722;2022-07-23T10:53:55;26.40;99.90
26589;DHT22;14235;48.532;8.722;2022-07-23T10:56:50;26.50;99.90
26589;DHT22;14235;48.532;8.722;2022-07-23T10:59:16;26.70;99.90
26589;DHT22;14235;48.532;8.722;2022-07-23T11:01:41;26.70;99.60
26589;DHT22;14235;48.532;8.722;2022-07-23T11:04:07;26.70;99.30
26589;DHT22;14235;48.532;8.722;2022-07-23T14:33:41;29.80;76.70
26589;DHT22;14235;48.532;8.722;2022-07-23T14:45:51;31.30;87.40
26589;DHT22;14235;48.532;8.722;2022-07-23T14:48:16;31.90;84.60
26589;DHT22;14235;48.532;8.722;2022-07-23T14:50:42;31.90;83.70
26589;DHT22;14235;48.532;8.722;2022-07-23T14:53:07;31.80;83.90
26589;DHT22;14235;48.532;8.722;2022-07-23T14:55:33;31.30;82.00
26589;DHT22;14235;48.532;8.722;2022-07-23T14:57:59;31.00;82.20
26589;DHT22;14235;48.532;8.722;2022-07-23T15:00:25;30.70;81.60
26589;DHT22;14235;48.532;8.722;2022-07-23T15:02:52;30.90;82.30
26589;DHT22;14235;48.532;8.722;2022-07-23T15:05:17;31.20;81.80
26589;DHT22;14235;48.532;8.722;2022-07-23T15:07:43;31.50;79.10
26589;DHT22;14235;48.532;8.722;2022-07-23T15:10:09;32.60;76.20
26589;DHT22;14235;48.532;8.722;2022-07-23T15:12:34;32.70;70.10
26589;DHT22;14235;48.532;8.722;2022-07-23T15:22:19;34.50;61.90
26589;DHT22;14235;48.532;8.722;2022-07-23T15:29:36;36.50;56.60
26589;DHT22;14235;48.532;8.722;2022-07-23T15:32:02;36.50;56.80
26589;DHT22;14235;48.532;8.722;2022-07-23T15:34:28;35.40;56.90
26589;DHT22;14235;48.532;8.722;2022-07-23T15:36:54;34.30;59.50
26589;DHT22;14235;48.532;8.722;2022-07-23T15:39:20;33.70;59.90
26589;DHT22;14235;48.532;8.722;2022-07-23T15:41:45;32.70;60.50
26589;DHT22;14235;48.532;8.722;2022-07-23T15:44:11;32.50;59.60
26589;DHT22;14235;48.532;8.722;2022-07-23T15:46:37;32.10;59.20
26589;DHT22;14235;48.532;8.722;2022-07-23T15:49:02;31.60;60.70
26589;DHT22;14235;48.532;8.722;2022-07-23T15:51:28;31.10;61.40
26589;DHT22;14235;48.532;8.722;2022-07-23T15:53:54;30.80;62.60
26589;DHT22;14235;48.532;8.722;2022-07-23T15:56:20;30.60;66.10
26589;DHT22;14235;48.532;8.722;2022-07-23T15:58:46;30.20;65.10
26589;DHT22;14235;48.532;8.722;2022-07-23T16:01:12;29.40;65.70
26589;DHT22;14235;48.532;8.722;2022-07-23T16:03:38;29.80;66.90
26589;DHT22;14235;48.532;8.722;2022-07-23T16:06:05;29.70;69.80
26589;DHT22;14235;48.532;8.722;2022-07-23T16:08:31;29.50;68.80
26589;DHT22;14235;48.532;8.722;2022-07-23T16:10:57;29.70;69.20
26589;DHT22;14235;48.532;8.722;2022-07-23T16:13:24;29.90;69.90
26589;DHT22;14235;48.532;8.722;2022-07-23T16:15:50;29.80;69.10
26589;DHT22;14235;48.532;8.722;2022-07-23T16:18:16;30.00;70.90
26589;DHT22;14235;48.532;8.722;2022-07-23T16:20:42;29.80;77.30
26589;DHT22;14235;48.532;8.722;2022-07-23T16:23:08;29.30;75.10
26589;DHT22;14235;48.532;8.722;2022-07-23T16:25:34;29.30;76.80
26589;DHT22;14235;48.532;8.722;2022-07-23T16:28:00;30.60;74.40
26589;DHT22;14235;48.532;8.722;2022-07-23T16:30:26;32.10;69.40
26589;DHT22;14235;48.532;8.722;2022-07-23T16:32:51;33.40;66.90
26589;DHT22;14235;48.532;8.722;2022-07-23T16:35:17;35.30;58.80
26589;DHT22;14235;48.532;8.722;2022-07-23T16:37:42;35.70;58.70
26589;DHT22;14235;48.532;8.722;2022-07-23T16:40:09;34.70;58.00
26589;DHT22;14235;48.532;8.722;2022-07-23T16:42:35;33.10;61.00
26589;DHT22;14235;48.532;8.722;2022-07-23T16:45:02;32.70;63.30
26589;DHT22;14235;48.532;8.722;2022-07-23T16:47:27;32.60;64.20
26589;DHT22;14235;48.532;8.722;2022-07-23T16:49:53;32.30;64.50
26589;DHT22;14235;48.532;8.722;2022-07-23T16:52:19;31.20;66.20
26589;DHT22;14235;48.532;8.722;2022-07-23T16:54:45;31.20;68.30
26589;DHT22;14235;48.532;8.722;2022-07-23T16:57:10;30.30;70.30
26589;DHT22;14235;48.532;8.722;2022-07-23T16:59:36;29.70;72.90
26589;DHT22;14235;48.532;8.722;2022-07-23T17:02:02;29.30;73.80
26589;DHT22;14235;48.532;8.722;2022-07-23T17:04:28;29.40;74.00
26589;DHT22;14235;48.532;8.722;2022-07-23T17:06:54;29.20;74.30
26589;DHT22;14235;48.532;8.722;2022-07-23T17:09:19;28.70;77.10
26589;DHT22;14235;48.532;8.722;2022-07-23T17:11:45;28.50;78.10
26589;DHT22;14235;48.532;8.722;2022-07-23T17:14:11;28.40;78.00
26589;DHT22;14235;48.532;8.722;2022-07-23T17:16:36;28.20;78.30
26589;DHT22;14235;48.532;8.722;2022-07-23T17:19:03;28.10;79.00
26589;DHT22;14235;48.532;8.722;2022-07-23T17:21:29;28.00;79.50
26589;DHT22;14235;48.532;8.722;2022-07-23T17:23:55;28.10;79.60
26589;DHT22;14235;48.532;8.722;2022-07-23T17:26:21;28.10;80.00
26589;DHT22;14235;48.532;8.722;2022-07-23T17:28:46;28.10;79.40
26589;DHT22;14235;48.532;8.722;2022-07-23T17:31:12;27.50;79.20
26589;DHT22;14235;48.532;8.722;2022-07-23T17:33:37;27.90;79.60
26589;DHT22;14235;48.532;8.722;2022-07-23T17:36:04;27.90;81.30
26589;DHT22;14235;48.532;8.722;2022-07-23T17:38:30;27.90;80.10
26589;DHT22;14235;48.532;8.722;2022-07-23T17:40:55;27.90;81.40
26589;DHT22;14235;48.532;8.722;2022-07-23T17:43:21;28.00;80.30
26589;DHT22;14235;48.532;8.722;2022-07-23T17:45:46;28.10;80.60
26589;DHT22;14235;48.532;8.722;2022-07-23T17:48:12;28.00;81.60
26589;DHT22;14235;48.532;8.722;2022-07-23T17:50:38;28.00;80.70
26589;DHT22;14235;48.532;8.722;2022-07-23T17:53:04;27.90;81.60
26589;DHT22;14235;48.532;8.722;2022-07-23T17:55:31;27.90;81.60
26589;DHT22;14235;48.532;8.722;2022-07-23T17:57:57;27.90;82.30
26589;DHT22;14235;48.532;8.722;2022-07-23T18:00:27;27.90;83.00
26589;DHT22;14235;48.532;8.722;2022-07-23T18:02:54;27.80;83.20
26589;DHT22;14235;48.532;8.722;2022-07-23T18:05:20;27.60;83.30
26589;DHT22;14235;48.532;8.722;2022-07-23T18:07:46;27.60;83.90
26589;DHT22;14235;48.532;8.722;2022-07-23T18:10:12;27.60;84.20
26589;DHT22;14235;48.532;8.722;2022-07-23T18:12:38;27.70;83.50
26589;DHT22;14235;48.532;8.722;2022-07-23T18:15:05;27.70;83.30
26589;DHT22;14235;48.532;8.722;2022-07-23T18:17:31;27.50;83.30
26589;DHT22;14235;48.532;8.722;2022-07-23T18:19:56;27.40;83.90
26589;DHT22;14235;48.532;8.722;2022-07-23T18:22:22;27.30;85.70
26589;DHT22;14235;48.532;8.722;2022-07-23T18:24:47;27.30;84.60
26589;DHT22;14235;48.532;8.722;2022-07-23T18:27:13;27.40;84.80
26589;DHT22;14235;48.532;8.722;2022-07-23T18:29:38;27.50;84.70
26589;DHT22;14235;48.532;8.722;2022-07-23T18:32:04;27.40;85.30
26589;DHT22;14235;48.532;8.722;2022-07-23T18:34:30;27.20;88.00
26589;DHT22;14235;48.532;8.722;2022-07-23T18:36:56;27.10;87.80
26589;DHT22;14235;48.532;8.722;2022-07-23T18:39:22;27.00;88.80
26589;DHT22;14235;48.532;8.722;2022-07-23T18:41:48;27.10;88.30
26589;DHT22;14235;48.532;8.722;2022-07-23T18:44:14;26.90;88.70
26589;DHT22;14235;48.532;8.722;2022-07-23T18:46:40;26.90;88.80
26589;DHT22;14235;48.532;8.722;2022-07-23T18:49:06;26.90;89.00
26589;DHT22;14235;48.532;8.722;2022-07-23T18:51:32;26.90;90.10
26589;DHT22;14235;48.532;8.722;2022-07-23T18:53:58;26.80;90.10
26589;DHT22;14235;48.532;8.722;2022-07-23T18:56:23;26.70;90.70
26589;DHT22;14235;48.532;8.722;2022-07-23T18:58:49;26.60;91.10
26589;DHT22;14235;48.532;8.722;2022-07-23T19:01:14;26.50;91.20
26589;DHT22;14235;48.532;8.722;2022-07-23T19:03:41;26.30;91.50
26589;DHT22;14235;48.532;8.722;2022-07-23T19:06:07;26.40;92.00
26589;DHT22;14235;48.532;8.722;2022-07-23T19:08:32;26.10;92.30
26589;DHT22;14235;48.532;8.722;2022-07-23T19:10:59;26.10;92.40
26589;DHT22;14235;48.532;8.722;2022-07-23T19:13:24;25.90;92.50
26589;DHT22;14235;48.532;8.722;2022-07-23T19:15:50;25.90;92.80
26589;DHT22;14235;48.532;8.722;2022-07-23T19:18:17;25.80;92.90
26589;DHT22;14235;48.532;8.722;2022-07-23T19:20:43;25.70;93.30
26589;DHT22;14235;48.532;8.722;2022-07-23T19:23:09;25.50;93.50
26589;DHT22;14235;48.532;8.722;2022-07-23T19:25:34;25.50;93.80
26589;DHT22;14235;48.532;8.722;2022-07-23T19:28:00;25.40;94.00
26589;DHT22;14235;48.532;8.722;2022-07-23T19:30:26;25.50;94.30
26589;DHT22;14235;48.532;8.722;2022-07-23T19:32:51;25.40;95.10
26589;DHT22;14235;48.532;8.722;2022-07-23T19:35:17;25.20;95.20
26589;DHT22;14235;48.532;8.722;2022-07-23T19:37:43;25.10;95.30
26589;DHT22;14235;48.532;8.722;2022-07-23T19:40:09;25.00;95.70
26589;DHT22;14235;48.532;8.722;2022-07-23T19:42:35;24.90;95.80
26589;DHT22;14235;48.532;8.722;2022-07-23T19:45:02;24.80;96.00
26589;DHT22;14235;48.532;8.722;2022-07-23T19:47:28;24.70;96.50
26589;DHT22;14235;48.532;8.722;2022-07-23T19:49:53;24.60;96.80
26589;DHT22;14235;48.532;8.722;2022-07-23T19:52:19;24.60;97.10
26589;DHT22;14235;48.532;8.722;2022-07-23T19:54:45;24.60;97.20
26589;DHT22;14235;48.532;8.722;2022-07-23T19:57:10;24.50;97.20
26589;DHT22;14235;48.532;8.722;2022-07-23T19:59:36;24.50;97.40
26589;DHT22;14235;48.532;8.722;2022-07-23T20:02:02;24.50;97.60
26589;DHT22;14235;48.532;8.722;2022-07-23T20:04:28;24.50;97.70
26589;DHT22;14235;48.532;8.722;2022-07-23T20:06:56;24.50;98.00
26589;DHT22;14235;48.532;8.722;2022-07-23T20:09:23;24.40;98.10
26589;DHT22;14235;48.532;8.722;2022-07-23T20:11:49;24.40;98.00
26589;DHT22;14235;48.532;8.722;2022-07-23T20:14:14;24.30;98.50
26589;DHT22;14235;48.532;8.722;2022-07-23T20:16:40;24.30;98.80
26589;DHT22;14235;48.532;8.722;2022-07-23T20:19:05;24.20;99.40
26589;DHT22;14235;48.532;8.722;2022-07-23T20:21:31;24.20;99.90
26589;DHT22;14235;48.532;8.722;2022-07-23T20:23:57;24.00;99.90
26589;DHT22;14235;48.532;8.722;2022-07-23T20:26:24;23.70;99.90
26589;DHT22;14235;48.532;8.722;2022-07-23T20:28:50;23.80;99.90
26589;DHT22;14235;48.532;8.722;2022-07-23T20:31:15;24.00;99.90
26589;DHT22;14235;48.532;8.722;2022-07-23T20:33:41;23.90;99.90
26589;DHT22;14235;48.532;8.722;2022-07-23T20:58:02;23.60;99.90
26589;DHT22;14235;48.532;8.722;2022-07-23T21:00:28;23.70;99.90
26589;DHT22;14235;48.532;8.722;2022-07-23T21:02:54;23.70;99.90
26589;DHT22;14235;48.532;8.722;2022-07-23T21:05:20;23.70;99.90
26589;DHT22;14235;48.532;8.722;2022-07-23T21:07:45;23.60;99.90
26589;DHT22;14235;48.532;8.722;2022-07-23T21:10:11;23.50;99.90
26589;DHT22;14235;48.532;8.722;2022-07-23T21:12:37;23.60;99.90
26589;DHT22;14235;48.532;8.722;2022-07-23T21:15:04;23.40;99.90
26589;DHT22;14235;48.532;8.722;2022-07-23T21:17:30;23.50;99.90
26589;DHT22;14235;48.532;8.722;2022-07-23T21:19:56;23.40;99.90
26589;DHT22;14235;48.532;8.722;2022-07-23T21:22:21;23.40;99.90
26589;DHT22;14235;48.532;8.722;2022-07-23T21:24:47;23.40;99.90
26589;DHT22;14235;48.532;8.722;2022-07-23T21:27:13;23.30;99.90
26589;DHT22;14235;48.532;8.722;2022-07-23T21:58:54;22.70;99.90
26589;DHT22;14235;48.532;8.722;2022-07-23T22:01:19;22.80;99.90
26589;DHT22;14235;48.532;8.722;2022-07-23T22:03:45;22.80;99.90
26589;DHT22;14235;48.532;8.722;2022-07-23T22:06:10;22.80;99.90
26589;DHT22;14235;48.532;8.722;2022-07-23T22:08:36;22.70;99.90
26589;DHT22;14235;48.532;8.722;2022-07-23T23:31:24;21.80;99.90
26589;DHT22;14235;48.532;8.722;2022-07-23T23:33:49;22.00;99.90
26589;DHT22;14235;48.532;8.722;2022-07-23T23:36:15;21.70;99.90
26589;DHT22;14235;48.532;8.722;2022-07-23T23:38:41;21.50;99.90
26589;DHT22;14235;48.532;8.722;2022-07-23T23:41:06;21.40;99.90
26589;DHT22;14235;48.532;8.722;2022-07-23T23:43:32;21.40;99.90
26589;DHT22;14235;48.532;8.722;2022-07-23T23:45:57;21.40;99.90
26589;DHT22;14235;48.532;8.722;2022-07-23T23:48:23;21.40;99.90
26589;DHT22;14235;48.532;8.722;2022-07-23T23:50:49;21.30;99.90
26589;DHT22;14235;48.532;8.722;2022-07-23T23:53:14;21.40;99.90
26589;DHT22;14235;48.532;8.722;2022-07-23T23:55:40;21.30;99.90
26589;DHT22;14235;48.532;8.722;2022-07-23T23:58:06;21.30;99.90
